createdAt,value
2022-12-20T00:04:59.478Z,17.30
2022-12-20T00:10:02.839Z,22.90
2022-12-20T00:15:06.839Z,18.80
2022-12-20T00:20:10.861Z,19.40
2022-12-20T00:25:14.868Z,17.50
2022-12-20T00:30:18.593Z,16.50
2022-12-20T00:35:22.045Z,15.00
2022-12-20T00:40:25.432Z,13.60
2022-12-20T00:45:28.686Z,15.80
2022-12-20T00:50:32.161Z,12.40
2022-12-20T00:55:35.425Z,13.00
2022-12-20T01:00:40.080Z,11.50
2022-12-20T01:05:57.895Z,20.20
2022-12-20T01:11:04.814Z,15.40
2022-12-20T01:16:11.087Z,14.60
2022-12-20T01:21:16.626Z,15.30
2022-12-20T01:26:22.663Z,16.80
2022-12-20T01:31:27.286Z,14.60
2022-12-20T01:36:34.408Z,15.80
2022-12-20T01:41:38.461Z,17.50
2022-12-20T01:46:41.811Z,17.60
2022-12-20T01:51:53.451Z,19.40
2022-12-20T01:57:07.413Z,15.20
2022-12-20T02:02:13.376Z,18.20
2022-12-20T02:07:29.869Z,14.40
2022-12-20T02:12:46.106Z,21.20
2022-12-20T02:17:58.092Z,20.10
2022-12-20T02:23:22.511Z,25.20
2022-12-20T02:29:00.767Z,23.20
2022-12-20T02:34:06.073Z,17.90
2022-12-20T02:39:15.661Z,19.20
2022-12-20T02:44:43.068Z,19.20
2022-12-20T02:49:47.859Z,20.20
2022-12-20T02:54:51.213Z,21.70
2022-12-20T03:00:09.022Z,21.40
2022-12-20T03:05:12.950Z,18.30
2022-12-20T03:10:18.190Z,27.60
2022-12-20T03:15:21.531Z,18.40
2022-12-20T03:20:24.983Z,24.70
2022-12-20T03:25:29.033Z,28.20
2022-12-20T03:30:32.377Z,31.60
2022-12-20T03:35:35.886Z,30.50
2022-12-20T03:40:39.174Z,27.00
2022-12-20T03:45:42.729Z,36.60
2022-12-20T03:50:46.106Z,32.40
2022-12-20T03:55:49.428Z,22.10
2022-12-20T04:00:52.776Z,31.20
2022-12-20T04:05:56.040Z,35.90
2022-12-20T04:11:17.929Z,41.60
2022-12-20T04:16:25.923Z,37.20
2022-12-20T04:21:34.919Z,38.20
2022-12-20T04:26:38.232Z,34.40
2022-12-20T04:31:42.630Z,36.50
2022-12-20T04:36:46.192Z,37.00
2022-12-20T04:41:49.611Z,35.50
2022-12-20T04:46:53.335Z,37.00
2022-12-20T04:52:16.622Z,38.80
2022-12-20T04:57:20.022Z,41.50
2022-12-20T05:02:24.557Z,29.40
2022-12-20T05:07:28.112Z,36.60
2022-12-20T05:12:31.513Z,33.30
2022-12-20T05:17:35.703Z,41.80
2022-12-20T05:23:17.520Z,35.90
2022-12-20T05:28:20.735Z,38.60
2022-12-20T05:33:29.017Z,35.10
2022-12-20T05:38:37.426Z,35.70
2022-12-20T05:43:40.714Z,39.60
2022-12-20T05:48:44.076Z,40.50
2022-12-20T05:53:47.587Z,40.70
2022-12-20T05:58:50.846Z,36.60
2022-12-20T06:03:54.244Z,38.50
2022-12-20T06:08:57.798Z,34.80
2022-12-20T06:14:07.683Z,37.60
2022-12-20T06:19:16.050Z,39.20
2022-12-20T06:24:25.708Z,30.40
2022-12-20T06:29:30.071Z,37.30
2022-12-20T06:34:33.408Z,42.20
2022-12-20T06:39:36.799Z,37.60
2022-12-20T06:44:40.117Z,32.40
2022-12-20T06:49:43.437Z,31.40
2022-12-20T06:54:46.752Z,37.70
2022-12-20T06:59:50.141Z,42.80
2022-12-20T07:04:53.730Z,32.00
2022-12-20T07:09:57.381Z,38.50
2022-12-20T07:15:00.641Z,38.70
2022-12-20T07:20:10.992Z,37.90
2022-12-20T07:25:16.645Z,41.40
2022-12-20T07:30:23.854Z,37.10
2022-12-20T07:35:29.692Z,37.50
2022-12-20T07:40:33.056Z,37.90
2022-12-20T07:45:37.977Z,27.70
2022-12-20T07:50:42.345Z,30.60
2022-12-20T07:55:46.277Z,36.20
2022-12-20T08:00:50.174Z,38.70
2022-12-20T08:05:58.903Z,35.90
2022-12-20T08:11:04.248Z,32.90
2022-12-20T08:16:08.467Z,41.40
2022-12-20T08:21:13.478Z,36.30
2022-12-20T08:26:18.144Z,36.20
2022-12-20T08:31:23.561Z,25.30
2022-12-20T08:36:28.392Z,36.40
2022-12-20T08:41:32.703Z,33.70
2022-12-20T08:46:37.475Z,36.80
2022-12-20T08:51:40.949Z,32.10
2022-12-20T08:56:45.042Z,35.10
2022-12-20T09:01:51.265Z,42.50
2022-12-20T09:06:54.678Z,40.00
2022-12-20T09:11:58.108Z,39.70
2022-12-20T09:17:01.447Z,38.40
2022-12-20T09:22:09.040Z,34.70
2022-12-20T09:27:12.452Z,36.30
2022-12-20T09:32:16.844Z,30.80
2022-12-20T09:37:20.270Z,40.50
2022-12-20T09:42:29.934Z,34.40
2022-12-20T09:47:36.750Z,34.80
2022-12-20T09:52:53.194Z,32.80
2022-12-20T09:58:22.268Z,34.70
2022-12-20T10:03:33.242Z,32.40
2022-12-20T10:09:02.338Z,32.60
2022-12-20T10:14:27.642Z,37.30
2022-12-20T10:19:37.367Z,31.60
2022-12-20T10:25:00.591Z,33.50
2022-12-20T10:30:13.953Z,37.90
2022-12-20T10:35:29.360Z,37.80
2022-12-20T10:41:19.642Z,33.80
2022-12-20T10:46:11.374Z,32.30
2022-12-20T10:51:21.577Z,32.60
2022-12-20T10:56:36.650Z,32.90
2022-12-20T11:01:45.658Z,38.10
2022-12-20T11:06:49.251Z,34.90
2022-12-20T11:12:01.013Z,32.10
2022-12-20T11:17:25.731Z,33.10
2022-12-20T11:22:43.332Z,40.80
2022-12-20T11:28:00.274Z,36.00
2022-12-20T11:33:34.357Z,34.20
2022-12-20T11:38:46.946Z,29.00
2022-12-20T11:44:24.546Z,39.60
2022-12-20T11:49:55.383Z,24.80
2022-12-20T11:55:25.952Z,33.40
2022-12-20T12:00:30.355Z,30.60
2022-12-20T12:05:51.601Z,36.00
2022-12-20T12:11:04.390Z,30.50
2022-12-20T12:16:26.288Z,33.60
2022-12-20T12:21:37.819Z,36.90
2022-12-20T12:26:42.381Z,34.80
2022-12-20T12:31:56.035Z,36.30
2022-12-20T12:37:02.634Z,29.30
2022-12-20T12:42:33.969Z,40.90
2022-12-20T12:47:46.119Z,37.90
2022-12-20T12:52:53.796Z,39.80
2022-12-20T12:57:58.448Z,34.30
2022-12-20T13:03:17.052Z,36.60
2022-12-20T13:08:40.394Z,33.50
2022-12-20T13:13:43.744Z,36.80
2022-12-20T13:19:07.892Z,36.20
2022-12-20T13:24:36.306Z,43.30
2022-12-20T13:29:54.587Z,33.40
2022-12-20T13:34:58.531Z,36.30
2022-12-20T13:40:19.868Z,38.50
2022-12-20T13:45:24.107Z,36.00
2022-12-20T13:50:40.541Z,36.10
2022-12-20T13:55:44.588Z,37.10
2022-12-20T14:00:49.920Z,27.10
2022-12-20T14:06:03.594Z,35.90
2022-12-20T14:11:27.319Z,30.10
2022-12-20T14:16:33.009Z,40.80
2022-12-20T14:21:40.495Z,26.30
2022-12-20T14:26:51.281Z,23.50
2022-12-20T14:31:54.691Z,39.90
2022-12-20T14:37:32.376Z,36.30
2022-12-20T14:42:40.573Z,42.70
2022-12-20T14:48:12.097Z,39.60
2022-12-20T14:53:22.773Z,38.40
2022-12-20T14:58:30.306Z,45.50
2022-12-20T15:03:34.012Z,46.40
2022-12-20T15:08:38.301Z,35.80
2022-12-20T15:13:47.279Z,42.40
2022-12-20T15:18:56.257Z,43.40
2022-12-20T15:24:08.383Z,34.20
2022-12-20T15:29:29.976Z,43.20
2022-12-20T15:34:36.500Z,46.20
2022-12-20T15:39:40.009Z,47.10
2022-12-20T15:44:44.121Z,46.80
2022-12-20T15:49:50.465Z,36.60
2022-12-20T15:54:54.355Z,33.30
2022-12-20T16:00:00.317Z,45.90
2022-12-20T16:05:05.376Z,46.00
2022-12-20T16:10:14.109Z,41.40
2022-12-20T16:15:22.933Z,42.70
2022-12-20T16:20:27.875Z,48.60
2022-12-20T16:25:33.862Z,45.40
2022-12-20T16:30:37.429Z,42.60
2022-12-20T16:35:40.714Z,44.10
2022-12-20T16:40:44.299Z,43.30
2022-12-20T16:45:47.539Z,41.10
2022-12-20T16:50:51.860Z,46.20
2022-12-20T16:55:55.591Z,31.10
2022-12-20T17:00:59.601Z,36.30
2022-12-20T17:06:03.126Z,51.60
2022-12-20T17:11:18.680Z,52.40
2022-12-20T17:16:23.025Z,47.20
2022-12-20T17:27:00.594Z,63.20
2022-12-20T17:32:21.482Z,49.70
2022-12-20T17:37:25.269Z,52.80
2022-12-20T17:42:31.536Z,54.70
2022-12-20T17:47:36.032Z,49.20
2022-12-20T17:52:39.838Z,40.40
2022-12-20T17:57:43.234Z,40.80
2022-12-20T18:02:46.769Z,24.90
2022-12-20T18:07:55.311Z,41.70
2022-12-20T18:12:58.650Z,42.80
2022-12-20T18:18:01.953Z,51.50
2022-12-20T18:23:05.241Z,44.30
2022-12-20T18:28:08.600Z,47.80
2022-12-20T18:33:12.712Z,61.60
2022-12-20T18:38:16.853Z,42.90
2022-12-20T18:43:20.229Z,53.60
2022-12-20T18:48:25.439Z,32.80
2022-12-20T18:53:32.701Z,54.00
2022-12-20T18:58:36.635Z,37.30
2022-12-20T19:03:40.139Z,38.70
2022-12-20T19:08:43.745Z,42.60
2022-12-20T19:13:47.804Z,48.60
2022-12-20T19:18:51.323Z,52.60
2022-12-20T19:23:58.024Z,48.20
2022-12-20T19:29:01.845Z,52.70
2022-12-20T19:34:08.776Z,42.00
2022-12-20T19:39:20.801Z,42.30
2022-12-20T19:44:24.337Z,37.10
2022-12-20T19:49:27.582Z,43.70
2022-12-20T19:54:31.000Z,35.00
2022-12-20T19:59:34.290Z,39.90
2022-12-20T20:04:37.587Z,38.90
2022-12-20T20:09:40.943Z,44.90
2022-12-20T20:14:44.247Z,56.50
2022-12-20T20:19:49.153Z,43.20
2022-12-20T20:24:53.915Z,45.00
2022-12-20T20:29:58.024Z,44.50
2022-12-20T20:35:01.771Z,45.30
2022-12-20T20:40:06.056Z,37.30
2022-12-20T20:45:09.981Z,41.10
2022-12-20T20:50:14.003Z,52.30
2022-12-20T20:55:18.591Z,48.70
2022-12-20T21:00:22.447Z,53.00
2022-12-20T21:10:50.718Z,37.50
2022-12-20T21:15:54.328Z,33.80
2022-12-20T21:20:57.996Z,38.80
2022-12-20T21:26:01.349Z,35.00
2022-12-20T21:31:09.349Z,43.00
2022-12-20T21:36:18.251Z,32.80
2022-12-20T21:41:23.893Z,41.10
2022-12-20T21:46:29.785Z,28.60
2022-12-20T21:51:35.017Z,32.50
2022-12-20T21:56:38.662Z,25.90
2022-12-20T22:01:42.882Z,35.80
2022-12-20T22:06:46.374Z,37.90
2022-12-20T22:11:49.743Z,30.40
2022-12-20T22:16:55.048Z,40.90
2022-12-20T22:21:58.888Z,34.80
2022-12-20T22:27:07.738Z,37.40
2022-12-20T22:32:14.529Z,28.60
2022-12-20T22:37:18.356Z,34.70
2022-12-20T22:42:21.936Z,38.90
2022-12-20T22:52:46.323Z,31.60
2022-12-20T22:57:49.542Z,32.80
2022-12-20T23:02:52.853Z,34.70
2022-12-20T23:07:56.556Z,26.50
2022-12-20T23:13:18.420Z,24.50
2022-12-20T23:18:21.664Z,42.80
2022-12-20T23:23:24.914Z,29.40
2022-12-20T23:28:28.066Z,27.90
2022-12-20T23:33:31.794Z,32.40
2022-12-20T23:38:38.550Z,35.70
2022-12-20T23:43:42.478Z,27.10
2022-12-20T23:48:46.183Z,30.50
2022-12-20T23:53:52.496Z,31.70
2022-12-20T23:58:56.781Z,35.70
